createdAt,value
2024-04-10T00:00:59.000Z,987.00
2024-04-10T00:01:59.274Z,982.00
2024-04-10T00:02:58.869Z,978.00
2024-04-10T00:04:01.029Z,971.00
2024-04-10T00:04:59.169Z,984.00
2024-04-10T00:05:59.134Z,985.00
2024-04-10T00:06:59.131Z,979.00
2024-04-10T00:07:59.913Z,978.00
2024-04-10T00:08:59.253Z,985.00
2024-04-10T00:09:59.280Z,973.00
2024-04-10T00:10:59.420Z,972.00
2024-04-10T00:11:59.510Z,992.00
2024-04-10T00:12:59.432Z,981.00
2024-04-10T00:13:59.690Z,985.00
2024-04-10T00:14:59.512Z,987.00
2024-04-10T00:15:59.620Z,984.00
2024-04-10T00:16:59.650Z,993.00
2024-04-10T00:17:59.826Z,987.00
2024-04-10T00:19:00.086Z,987.00
2024-04-10T00:19:59.874Z,977.00
2024-04-10T00:20:59.915Z,984.00
2024-04-10T00:22:00.046Z,986.00
2024-04-10T00:23:00.058Z,989.00
2024-04-10T00:24:00.071Z,993.00
2024-04-10T00:25:00.166Z,987.00
2024-04-10T00:26:01.067Z,997.00
2024-04-10T00:27:00.247Z,983.00
2024-04-10T00:28:00.321Z,977.00
2024-04-10T00:29:00.457Z,981.00
2024-04-10T00:30:00.545Z,975.00
2024-04-10T00:31:00.439Z,980.00
2024-04-10T00:32:00.570Z,984.00
2024-04-10T00:33:00.696Z,997.00
2024-04-10T00:34:00.719Z,985.00
2024-04-10T00:35:00.769Z,970.00
2024-04-10T00:36:00.707Z,982.00
2024-04-10T00:37:00.847Z,981.00
2024-04-10T00:38:00.976Z,982.00
2024-04-10T00:39:00.978Z,974.00
2024-04-10T00:40:01.017Z,988.00
2024-04-10T00:41:01.515Z,978.00
2024-04-10T00:42:01.112Z,970.00
2024-04-10T00:43:01.140Z,972.00
2024-04-10T00:44:01.261Z,972.00
2024-04-10T00:45:01.338Z,973.00
2024-04-10T00:46:01.348Z,982.00
2024-04-10T00:47:01.557Z,972.00
2024-04-10T00:48:01.604Z,966.00
2024-04-10T00:49:01.607Z,968.00
2024-04-10T00:50:01.598Z,989.00
2024-04-10T00:51:01.700Z,982.00
2024-04-10T00:52:01.860Z,972.00
2024-04-10T00:53:01.725Z,967.00
2024-04-10T00:54:01.761Z,979.00
2024-04-10T00:55:01.802Z,976.00
2024-04-10T00:56:01.949Z,974.00
2024-04-10T00:57:01.929Z,968.00
2024-04-10T00:58:01.999Z,979.00
2024-04-10T00:59:02.155Z,969.00
2024-04-10T01:00:02.080Z,964.00
2024-04-10T01:01:02.199Z,967.00
2024-04-10T01:02:02.292Z,974.00
2024-04-10T01:03:02.333Z,971.00
2024-04-10T01:04:02.611Z,975.00
2024-04-10T01:05:02.567Z,950.00
2024-04-10T01:06:02.466Z,969.00
2024-04-10T01:07:02.507Z,985.00
2024-04-10T01:08:02.651Z,967.00
2024-04-10T01:09:02.713Z,969.00
2024-04-10T01:10:02.691Z,980.00
2024-04-10T01:11:02.814Z,993.00
2024-04-10T01:12:02.958Z,976.00
2024-04-10T01:13:02.941Z,974.00
2024-04-10T01:14:02.986Z,987.00
2024-04-10T01:15:02.987Z,990.00
2024-04-10T01:16:03.110Z,983.00
2024-04-10T01:17:03.335Z,972.00
2024-04-10T01:18:03.272Z,962.00
2024-04-10T01:19:03.280Z,955.00
2024-04-10T01:20:03.316Z,960.00
2024-04-10T01:21:03.389Z,960.00
2024-04-10T01:22:03.491Z,968.00
2024-04-10T01:23:03.658Z,970.00
2024-04-10T01:24:03.568Z,965.00
2024-04-10T01:25:03.574Z,956.00
2024-04-10T01:26:03.680Z,956.00
2024-04-10T01:27:03.987Z,959.00
2024-04-10T01:28:03.841Z,964.00
2024-04-10T01:29:03.977Z,974.00
2024-04-10T01:30:03.905Z,977.00
2024-04-10T01:31:03.966Z,975.00
2024-04-10T01:32:04.195Z,964.00
2024-04-10T01:33:04.182Z,952.00
2024-04-10T01:34:04.339Z,957.00
2024-04-10T01:35:04.202Z,964.00
2024-04-10T01:36:04.244Z,976.00
2024-04-10T01:37:04.352Z,960.00
2024-04-10T01:38:04.405Z,965.00
2024-04-10T01:39:04.437Z,961.00
2024-04-10T01:40:04.561Z,964.00
2024-04-10T01:41:04.627Z,964.00
2024-04-10T01:42:04.624Z,967.00
2024-04-10T01:43:04.651Z,965.00
2024-04-10T01:44:04.757Z,970.00
2024-04-10T01:45:04.774Z,969.00
2024-04-10T01:46:04.829Z,973.00
2024-04-10T01:47:04.996Z,974.00
2024-04-10T01:48:05.006Z,964.00
2024-04-10T01:49:05.052Z,971.00
2024-04-10T01:50:05.216Z,970.00
2024-04-10T01:51:05.134Z,972.00
2024-04-10T01:52:05.186Z,975.00
2024-04-10T01:53:05.366Z,978.00
2024-04-10T01:54:05.390Z,984.00
2024-04-10T01:55:05.962Z,989.00
2024-04-10T01:56:05.490Z,983.00
2024-04-10T01:57:05.541Z,985.00
2024-04-10T01:58:05.593Z,966.00
2024-04-10T01:59:05.711Z,971.00
2024-04-10T02:00:05.647Z,973.00
2024-04-10T02:01:05.739Z,978.00
2024-04-10T02:02:05.866Z,982.00
2024-04-10T02:03:05.960Z,979.00
2024-04-10T02:04:05.960Z,985.00
2024-04-10T02:05:06.076Z,984.00
2024-04-10T02:06:06.044Z,982.00
2024-04-10T02:07:06.055Z,985.00
2024-04-10T02:08:06.130Z,975.00
2024-04-10T02:09:06.239Z,977.00
2024-04-10T02:10:06.277Z,975.00
2024-04-10T02:11:06.418Z,971.00
2024-04-10T02:12:06.664Z,978.00
2024-04-10T02:13:06.565Z,983.00
2024-04-10T02:14:06.559Z,977.00
2024-04-10T02:15:06.559Z,970.00
2024-04-10T02:16:06.922Z,981.00
2024-04-10T02:17:06.859Z,977.00
2024-04-10T02:18:06.814Z,982.00
2024-04-10T02:19:06.790Z,983.00
2024-04-10T02:20:07.014Z,981.00
2024-04-10T02:21:06.920Z,974.00
2024-04-10T02:22:07.035Z,983.00
2024-04-10T02:23:07.104Z,974.00
2024-04-10T02:24:07.092Z,989.00
2024-04-10T02:25:07.140Z,991.00
2024-04-10T02:26:07.291Z,989.00
2024-04-10T02:27:07.265Z,972.00
2024-04-10T02:28:07.345Z,979.00
2024-04-10T02:29:07.351Z,974.00
2024-04-10T02:30:07.458Z,992.00
2024-04-10T02:31:07.465Z,980.00
2024-04-10T02:32:07.703Z,985.00
2024-04-10T02:33:07.711Z,990.00
2024-04-10T02:34:07.724Z,994.00
2024-04-10T02:35:07.749Z,982.00
2024-04-10T02:36:07.810Z,989.00
2024-04-10T02:37:09.838Z,984.00
2024-04-10T02:38:08.014Z,992.00
2024-04-10T02:39:07.968Z,982.00
2024-04-10T02:40:08.117Z,980.00
2024-04-10T02:41:08.091Z,978.00
2024-04-10T02:42:08.121Z,972.00
2024-04-10T02:43:08.201Z,968.00
2024-04-10T02:44:08.320Z,969.00
2024-04-10T02:45:08.317Z,981.00
2024-04-10T02:46:08.505Z,981.00
2024-04-10T02:47:08.561Z,985.00
2024-04-10T02:48:08.562Z,978.00
2024-04-10T02:49:08.575Z,979.00
2024-04-10T02:50:08.712Z,978.00
2024-04-10T02:51:08.719Z,975.00
2024-04-10T02:52:08.764Z,974.00
2024-04-10T02:53:09.053Z,978.00
2024-04-10T02:54:08.852Z,982.00
2024-04-10T02:55:08.974Z,982.00
2024-04-10T02:56:09.025Z,979.00
2024-04-10T02:57:09.103Z,974.00
2024-04-10T02:58:09.110Z,981.00
2024-04-10T02:59:09.254Z,975.00
2024-04-10T03:00:10.018Z,985.00
2024-04-10T03:01:09.308Z,985.00
2024-04-10T03:02:09.467Z,984.00
2024-04-10T03:03:09.449Z,985.00
2024-04-10T03:04:09.603Z,983.00
2024-04-10T03:05:09.585Z,984.00
2024-04-10T03:06:09.675Z,963.00
2024-04-10T03:07:09.633Z,976.00
2024-04-10T03:08:09.740Z,984.00
2024-04-10T03:09:09.774Z,978.00
2024-04-10T03:10:09.818Z,981.00
2024-04-10T03:11:10.137Z,974.00
2024-04-10T03:12:10.041Z,984.00
2024-04-10T03:13:10.012Z,970.00
2024-04-10T03:14:10.104Z,979.00
2024-04-10T03:15:10.144Z,983.00
2024-04-10T03:16:10.275Z,972.00
2024-04-10T03:17:10.403Z,978.00
2024-04-10T03:18:10.414Z,978.00
2024-04-10T03:19:10.385Z,982.00
2024-04-10T03:20:10.514Z,978.00
2024-04-10T03:21:10.565Z,969.00
2024-04-10T03:22:10.592Z,982.00
2024-04-10T03:23:10.920Z,984.00
2024-04-10T03:24:10.720Z,990.00
2024-04-10T03:25:10.849Z,983.00
2024-04-10T03:26:10.986Z,981.00
2024-04-10T03:27:10.951Z,976.00
2024-04-10T03:28:10.932Z,979.00
2024-04-10T03:29:11.046Z,978.00
2024-04-10T03:30:11.088Z,982.00
2024-04-10T03:31:11.152Z,972.00
2024-04-10T03:32:11.498Z,976.00
2024-04-10T03:33:11.353Z,981.00
2024-04-10T03:34:11.340Z,980.00
2024-04-10T03:35:11.474Z,972.00
2024-04-10T03:36:11.495Z,972.00
2024-04-10T03:37:11.649Z,967.00
2024-04-10T03:38:11.640Z,974.00
2024-04-10T03:39:11.721Z,976.00
2024-04-10T03:40:11.759Z,968.00
2024-04-10T03:41:11.868Z,974.00
2024-04-10T03:42:11.926Z,975.00
2024-04-10T03:43:11.966Z,978.00
2024-04-10T03:44:12.133Z,982.00
2024-04-10T03:45:12.170Z,974.00
2024-04-10T03:46:12.159Z,977.00
2024-04-10T03:47:12.387Z,977.00
2024-04-10T03:48:12.555Z,976.00
2024-04-10T03:49:12.422Z,977.00
2024-04-10T03:50:13.364Z,973.00
2024-04-10T03:51:12.522Z,972.00
2024-04-10T03:52:12.574Z,969.00
2024-04-10T03:53:12.699Z,970.00
2024-04-10T03:54:12.683Z,973.00
2024-04-10T03:55:12.732Z,978.00
2024-04-10T03:56:12.880Z,968.00
2024-04-10T03:57:12.946Z,976.00
2024-04-10T03:58:12.968Z,974.00
2024-04-10T03:59:13.022Z,958.00
2024-04-10T04:00:13.266Z,971.00
2024-04-10T04:01:13.342Z,965.00
2024-04-10T04:02:13.363Z,968.00
2024-04-10T04:03:13.437Z,970.00
2024-04-10T04:04:13.364Z,955.00
2024-04-10T04:05:13.477Z,931.00
2024-04-10T04:06:13.478Z,918.00
2024-04-10T04:07:13.647Z,904.00
2024-04-10T04:08:13.787Z,883.00
2024-04-10T04:09:13.697Z,854.00
2024-04-10T04:11:13.948Z,831.00
2024-04-10T04:12:14.076Z,819.00
2024-04-10T04:13:13.993Z,796.00
2024-04-10T04:14:14.108Z,781.00
2024-04-10T04:15:14.143Z,778.00
2024-04-10T04:16:14.202Z,757.00
2024-04-10T04:17:14.214Z,749.00
2024-04-10T04:18:14.379Z,725.00
2024-04-10T04:19:14.388Z,722.00
2024-04-10T04:20:14.688Z,692.00
2024-04-10T04:21:14.452Z,679.00
2024-04-10T04:22:14.554Z,674.00
2024-04-10T04:23:14.631Z,661.00
2024-04-10T04:24:14.671Z,658.00
2024-04-10T04:25:14.743Z,656.00
2024-04-10T04:26:14.845Z,647.00
2024-04-10T04:27:14.856Z,642.00
2024-04-10T04:28:14.968Z,641.00
2024-04-10T04:29:14.955Z,639.00
2024-04-10T04:30:15.055Z,632.00
2024-04-10T04:31:15.566Z,625.00
2024-04-10T04:32:15.311Z,633.00
2024-04-10T04:33:15.438Z,638.00
2024-04-10T04:34:15.389Z,642.00
2024-04-10T04:35:15.390Z,646.00
2024-04-10T04:36:22.669Z,600.00
2024-04-10T04:37:22.695Z,600.00
2024-04-10T04:38:22.740Z,600.00
2024-04-10T04:39:22.679Z,600.00
2024-04-10T04:40:22.657Z,600.00
2024-04-10T04:41:22.864Z,600.00
2024-04-10T04:42:22.694Z,606.00
2024-04-10T04:43:22.790Z,607.00
2024-04-10T04:44:22.740Z,610.00
2024-04-10T04:45:22.722Z,607.00
2024-04-10T04:46:22.753Z,617.00
2024-04-10T04:47:23.061Z,617.00
2024-04-10T04:48:23.035Z,619.00
2024-04-10T04:49:22.735Z,620.00
2024-04-10T04:50:22.804Z,619.00
2024-04-10T04:51:22.711Z,621.00
2024-04-10T04:52:22.743Z,629.00
2024-04-10T04:53:22.815Z,623.00
2024-04-10T04:54:22.713Z,628.00
2024-04-10T04:55:22.694Z,631.00
2024-04-10T04:56:22.791Z,630.00
2024-04-10T04:57:22.699Z,630.00
2024-04-10T04:58:25.520Z,632.00
2024-04-10T04:59:22.886Z,632.00
2024-04-10T05:00:22.695Z,632.00
2024-04-10T05:01:22.779Z,635.00
2024-04-10T05:02:22.952Z,637.00
2024-04-10T05:03:22.855Z,642.00
2024-04-10T05:04:22.830Z,643.00
2024-04-10T05:05:23.105Z,648.00
2024-04-10T05:06:22.704Z,648.00
2024-04-10T05:07:22.702Z,647.00
2024-04-10T05:08:22.747Z,645.00
2024-04-10T05:09:22.714Z,650.00
2024-04-10T05:10:22.723Z,653.00
2024-04-10T05:11:23.068Z,651.00
2024-04-10T05:12:22.779Z,650.00
2024-04-10T05:13:22.726Z,653.00
2024-04-10T05:14:22.800Z,652.00
2024-04-10T05:15:22.738Z,654.00
2024-04-10T05:16:22.906Z,655.00
2024-04-10T05:17:22.745Z,654.00
2024-04-10T05:18:22.875Z,655.00
2024-04-10T05:19:22.738Z,657.00
2024-04-10T05:20:22.825Z,660.00
2024-04-10T05:21:22.752Z,659.00
2024-04-10T05:22:22.781Z,659.00
2024-04-10T05:23:22.831Z,658.00
2024-04-10T05:24:22.758Z,663.00
2024-04-10T05:25:23.022Z,663.00
2024-04-10T05:26:22.947Z,664.00
2024-04-10T05:27:22.978Z,664.00
2024-04-10T05:28:23.050Z,666.00
2024-04-10T05:29:23.090Z,666.00
2024-04-10T05:30:23.113Z,666.00
2024-04-10T05:31:23.107Z,663.00
2024-04-10T05:32:23.198Z,664.00
2024-04-10T05:33:23.245Z,660.00
2024-04-10T05:34:23.430Z,657.00
2024-04-10T05:35:23.201Z,651.00
2024-04-10T05:36:23.277Z,645.00
2024-04-10T05:37:23.221Z,645.00
2024-04-10T05:38:23.351Z,636.00
2024-04-10T05:39:23.393Z,627.00
2024-04-10T05:40:23.343Z,628.00
2024-04-10T05:41:24.394Z,622.00
2024-04-10T05:42:23.353Z,625.00
2024-04-10T05:43:23.539Z,624.00
2024-04-10T05:44:23.536Z,616.00
2024-04-10T05:45:23.538Z,619.00
2024-04-10T05:46:23.664Z,615.00
2024-04-10T05:47:23.767Z,622.00
2024-04-10T05:48:23.787Z,611.00
2024-04-10T05:49:23.797Z,606.00
2024-04-10T05:50:23.972Z,607.00
2024-04-10T05:51:23.874Z,616.00
2024-04-10T05:52:24.185Z,620.00
2024-04-10T05:53:24.350Z,628.00
2024-04-10T05:55:09.721Z,600.00
2024-04-10T05:56:09.663Z,600.00
2024-04-10T05:57:10.712Z,600.00
2024-04-10T05:58:09.670Z,600.00
2024-04-10T05:59:09.837Z,600.00
2024-04-10T06:00:09.942Z,602.00
2024-04-10T06:01:10.051Z,603.00
2024-04-10T06:02:09.749Z,606.00
2024-04-10T06:03:12.440Z,607.00
2024-04-10T06:04:09.813Z,607.00
2024-04-10T06:05:11.462Z,608.00
2024-04-10T06:06:09.693Z,607.00
2024-04-10T06:07:09.734Z,610.00
2024-04-10T06:08:09.898Z,615.00
2024-04-10T06:09:09.667Z,623.00
2024-04-10T06:10:09.663Z,638.00
2024-04-10T06:11:10.114Z,637.00
2024-04-10T06:12:10.007Z,645.00
2024-04-10T06:13:09.797Z,642.00
2024-04-10T06:14:09.813Z,644.00
2024-04-10T06:15:10.047Z,638.00
2024-04-10T06:16:09.792Z,624.00
2024-04-10T06:17:09.749Z,624.00
2024-04-10T06:18:12.406Z,620.00
2024-04-10T06:19:09.652Z,608.00
2024-04-10T06:20:09.732Z,600.00
2024-04-10T06:21:10.297Z,603.00
2024-04-10T06:22:09.773Z,605.00
2024-04-10T06:23:09.703Z,606.00
2024-04-10T06:24:09.713Z,616.00
2024-04-10T06:25:09.713Z,619.00
2024-04-10T06:26:09.830Z,620.00
2024-04-10T06:27:10.806Z,618.00
2024-04-10T06:28:09.779Z,628.00
2024-04-10T06:29:09.976Z,637.00
2024-04-10T06:30:09.910Z,626.00
2024-04-10T06:31:12.368Z,628.00
2024-04-10T06:32:10.310Z,627.00
2024-04-10T06:33:09.903Z,632.00
2024-04-10T06:34:09.778Z,640.00
2024-04-10T06:35:09.898Z,646.00
2024-04-10T06:36:09.698Z,645.00
2024-04-10T06:37:09.679Z,648.00
2024-04-10T06:38:09.851Z,652.00
2024-04-10T06:39:09.774Z,654.00
2024-04-10T06:40:09.717Z,655.00
2024-04-10T06:41:10.538Z,646.00
2024-04-10T06:42:10.078Z,647.00
2024-04-10T06:43:09.852Z,646.00
2024-04-10T06:44:09.854Z,652.00
2024-04-10T06:45:09.829Z,661.00
2024-04-10T06:46:09.734Z,662.00
2024-04-10T06:47:10.264Z,665.00
2024-04-10T06:48:09.870Z,696.00
2024-04-10T06:49:10.048Z,670.00
2024-04-10T06:50:10.407Z,689.00
2024-04-10T06:51:09.849Z,679.00
2024-04-10T06:52:09.784Z,725.00
2024-04-10T06:53:09.896Z,724.00
2024-04-10T06:54:09.770Z,720.00
2024-04-10T06:55:09.787Z,741.00
2024-04-10T06:56:09.934Z,748.00
2024-04-10T06:57:09.780Z,748.00
2024-04-10T06:58:09.811Z,762.00
2024-04-10T06:59:09.897Z,776.00
2024-04-10T07:00:09.925Z,788.00
2024-04-10T07:01:09.996Z,777.00
2024-04-10T07:02:09.776Z,761.00
2024-04-10T07:03:09.855Z,735.00
2024-04-10T07:04:09.873Z,740.00
2024-04-10T07:05:09.775Z,741.00
2024-04-10T07:06:09.752Z,722.00
2024-04-10T07:07:09.830Z,708.00
2024-04-10T07:08:09.917Z,711.00
2024-04-10T07:09:09.924Z,718.00
2024-04-10T07:10:10.387Z,728.00
2024-04-10T07:11:09.891Z,750.00
2024-04-10T07:12:10.305Z,765.00
2024-04-10T07:13:10.375Z,768.00
2024-04-10T07:14:10.014Z,765.00
2024-04-10T07:15:10.128Z,758.00
2024-04-10T07:16:10.247Z,756.00
2024-04-10T07:17:10.480Z,755.00
2024-04-10T07:18:10.110Z,773.00
2024-04-10T07:19:10.148Z,767.00
2024-04-10T07:20:10.495Z,791.00
2024-04-10T07:21:12.829Z,830.00
2024-04-10T07:22:10.275Z,836.00
2024-04-10T07:23:10.992Z,854.00
2024-04-10T07:24:10.988Z,868.00
2024-04-10T07:25:10.381Z,877.00
2024-04-10T07:26:10.288Z,876.00
2024-04-10T07:27:10.513Z,889.00
2024-04-10T07:28:10.304Z,879.00
2024-04-10T07:29:10.543Z,872.00
2024-04-10T07:30:10.371Z,881.00
2024-04-10T07:31:10.254Z,869.00
2024-04-10T07:32:10.408Z,908.00
2024-04-10T07:33:10.379Z,886.00
2024-04-10T07:34:10.716Z,867.00
2024-04-10T07:35:10.417Z,841.00
2024-04-10T07:36:10.683Z,828.00
2024-04-10T07:37:10.306Z,807.00
2024-04-10T07:38:10.335Z,773.00
2024-04-10T07:39:10.362Z,726.00
2024-04-10T07:40:10.296Z,697.00
2024-04-10T07:41:11.546Z,672.00
2024-04-10T07:42:10.355Z,654.00
2024-04-10T07:43:10.330Z,652.00
2024-04-10T07:44:10.402Z,642.00
2024-04-10T07:45:10.275Z,634.00
2024-04-10T07:46:14.921Z,636.00
2024-04-10T07:47:11.296Z,630.00
2024-04-10T07:48:10.645Z,621.00
2024-04-10T07:49:10.773Z,619.00
2024-04-10T07:50:10.754Z,611.00
2024-04-10T07:51:10.266Z,608.00
2024-04-10T07:52:10.913Z,608.00
2024-04-10T07:53:10.514Z,603.00
2024-04-10T07:54:10.293Z,600.00
2024-04-10T07:55:12.854Z,602.00
2024-04-10T07:56:10.430Z,603.00
2024-04-10T07:57:10.268Z,601.00
2024-04-10T07:58:10.303Z,606.00
2024-04-10T07:59:10.422Z,607.00
2024-04-10T08:00:10.350Z,607.00
2024-04-10T08:01:10.448Z,605.00
2024-04-10T08:02:10.966Z,601.00
2024-04-10T08:03:11.996Z,606.00
2024-04-10T08:04:10.677Z,607.00
2024-04-10T08:05:10.553Z,605.00
2024-04-10T08:06:10.561Z,605.00
2024-04-10T08:07:10.951Z,608.00
2024-04-10T08:08:13.377Z,606.00
2024-04-10T08:09:10.523Z,611.00
2024-04-10T08:10:10.781Z,614.00
2024-04-10T08:11:10.452Z,613.00
2024-04-10T08:12:10.721Z,612.00
2024-04-10T08:13:10.314Z,610.00
2024-04-10T08:14:11.220Z,608.00
2024-04-10T08:15:10.411Z,606.00
2024-04-10T08:16:10.490Z,609.00
2024-04-10T08:17:10.906Z,607.00
2024-04-10T08:18:10.407Z,605.00
2024-04-10T08:19:10.559Z,601.00
2024-04-10T08:20:10.434Z,604.00
2024-04-10T08:21:13.295Z,601.00
2024-04-10T08:22:10.488Z,601.00
2024-04-10T08:23:11.055Z,593.00
2024-04-10T08:24:11.005Z,594.00
2024-04-10T08:25:10.410Z,588.00
2024-04-10T08:26:10.467Z,587.00
2024-04-10T08:27:10.808Z,601.00
2024-04-10T08:28:10.480Z,601.00
2024-04-10T08:29:12.033Z,600.00
2024-04-10T08:30:10.452Z,600.00
2024-04-10T08:31:10.668Z,600.00
2024-04-10T08:32:11.992Z,601.00
2024-04-10T08:33:10.724Z,600.00
2024-04-10T08:34:10.402Z,600.00
2024-04-10T08:35:10.621Z,601.00
2024-04-10T08:36:10.642Z,600.00
2024-04-10T08:37:10.562Z,600.00
2024-04-10T08:38:10.534Z,600.00
2024-04-10T08:39:10.626Z,600.00
2024-04-10T08:40:10.332Z,601.00
2024-04-10T08:41:10.951Z,600.00
2024-04-10T08:42:10.429Z,600.00
2024-04-10T08:43:10.497Z,600.00
2024-04-10T08:44:10.395Z,607.00
2024-04-10T08:45:12.956Z,610.00
2024-04-10T08:46:10.840Z,618.00
2024-04-10T08:47:12.064Z,629.00
2024-04-10T08:48:12.796Z,632.00
2024-04-10T08:49:10.732Z,633.00
2024-04-10T08:50:10.885Z,640.00
2024-04-10T08:51:10.741Z,655.00
2024-04-10T08:52:10.828Z,671.00
2024-04-10T08:53:11.011Z,687.00
2024-04-10T08:54:11.390Z,685.00
2024-04-10T08:55:12.566Z,690.00
2024-04-10T08:56:11.960Z,709.00
2024-04-10T08:57:10.924Z,738.00
2024-04-10T08:58:11.017Z,776.00
2024-04-10T08:59:11.272Z,789.00
2024-04-10T09:00:11.023Z,802.00
2024-04-10T09:01:11.855Z,816.00
2024-04-10T09:02:11.639Z,828.00
2024-04-10T09:03:12.480Z,845.00
2024-04-10T09:04:11.738Z,866.00
2024-04-10T09:05:12.239Z,865.00
2024-04-10T09:06:11.673Z,873.00
2024-04-10T09:07:11.626Z,884.00
2024-04-10T09:08:11.430Z,893.00
2024-04-10T09:09:11.359Z,910.00
2024-04-10T09:10:12.250Z,914.00
2024-04-10T09:11:11.392Z,944.00
2024-04-10T09:12:15.773Z,957.00
2024-04-10T09:13:11.527Z,953.00
2024-04-10T09:14:11.929Z,957.00
2024-04-10T09:15:19.371Z,962.00
2024-04-10T09:16:11.439Z,958.00
2024-04-10T09:17:11.431Z,964.00
2024-04-10T09:18:11.397Z,975.00
2024-04-10T09:19:11.534Z,989.00
2024-04-10T09:20:11.260Z,1001.00
2024-04-10T09:21:11.529Z,1019.00
2024-04-10T09:22:11.414Z,1025.00
2024-04-10T09:23:11.901Z,1022.00
2024-04-10T09:24:15.874Z,1037.00
2024-04-10T09:25:12.302Z,1038.00
2024-04-10T09:26:11.386Z,1042.00
2024-04-10T09:27:11.486Z,1052.00
2024-04-10T09:28:11.329Z,1069.00
2024-04-10T09:29:11.268Z,1083.00
2024-04-10T09:30:11.397Z,1086.00
2024-04-10T09:31:11.587Z,1079.00
2024-04-10T09:32:11.395Z,1065.00
2024-04-10T09:33:11.824Z,1075.00
2024-04-10T09:34:11.615Z,1050.00
2024-04-10T09:35:11.295Z,1032.00
2024-04-10T09:36:11.744Z,1027.00
2024-04-10T09:37:12.123Z,1006.00
2024-04-10T09:38:11.644Z,996.00
2024-04-10T09:39:11.337Z,1009.00
2024-04-10T09:40:11.284Z,1020.00
2024-04-10T09:41:11.394Z,1026.00
2024-04-10T09:42:11.978Z,1040.00
2024-04-10T09:43:11.240Z,1057.00
2024-04-10T09:44:12.003Z,1057.00
2024-04-10T09:45:11.516Z,1056.00
2024-04-10T09:46:11.279Z,1064.00
2024-04-10T09:47:11.363Z,1072.00
2024-04-10T09:48:12.683Z,1081.00
2024-04-10T09:49:11.343Z,1069.00
2024-04-10T09:50:11.425Z,1076.00
2024-04-10T09:51:11.580Z,1111.00
2024-04-10T09:52:11.375Z,1109.00
2024-04-10T09:53:12.156Z,1127.00
2024-04-10T09:54:11.567Z,1121.00
2024-04-10T09:55:11.339Z,1129.00
2024-04-10T09:56:11.407Z,1150.00
2024-04-10T09:57:11.614Z,1154.00
2024-04-10T09:58:11.967Z,1156.00
2024-04-10T09:59:12.101Z,1175.00
2024-04-10T10:00:13.579Z,1154.00
2024-04-10T10:01:11.865Z,1162.00
2024-04-10T10:02:12.546Z,1166.00
2024-04-10T10:03:12.035Z,1168.00
2024-04-10T10:04:12.362Z,1156.00
2024-04-10T10:05:12.068Z,1149.00
2024-04-10T10:06:12.968Z,1138.00
2024-04-10T10:07:12.024Z,1126.00
2024-04-10T10:08:12.268Z,1124.00
2024-04-10T10:09:15.323Z,1120.00
2024-04-10T10:10:12.037Z,1099.00
2024-04-10T10:11:14.698Z,1105.00
2024-04-10T10:12:12.890Z,1106.00
2024-04-10T10:13:12.966Z,1101.00
2024-04-10T10:14:12.401Z,1109.00
2024-04-10T10:15:12.083Z,1115.00
2024-04-10T10:16:12.069Z,1124.00
2024-04-10T10:17:12.460Z,1146.00
2024-04-10T10:19:12.271Z,1150.00
2024-04-10T10:20:12.161Z,1152.00
2024-04-10T10:21:12.894Z,1141.00
2024-04-10T10:22:12.535Z,1150.00
2024-04-10T10:23:12.970Z,1145.00
2024-04-10T10:24:12.289Z,1131.00
2024-04-10T10:25:11.996Z,1135.00
2024-04-10T10:26:13.342Z,1158.00
2024-04-10T10:27:13.404Z,1160.00
2024-04-10T10:28:12.999Z,1168.00
2024-04-10T10:29:15.013Z,1160.00
2024-04-10T10:30:12.684Z,1157.00
2024-04-10T10:31:12.079Z,1155.00
2024-04-10T10:32:12.165Z,1151.00
2024-04-10T10:33:12.259Z,1138.00
2024-04-10T10:34:12.190Z,1133.00
2024-04-10T10:35:13.074Z,1131.00
2024-04-10T10:36:12.145Z,1117.00
2024-04-10T10:37:13.361Z,1105.00
2024-04-10T10:38:12.070Z,1107.00
2024-04-10T10:39:12.948Z,1090.00
2024-04-10T10:40:13.048Z,1083.00
2024-04-10T10:41:17.646Z,1071.00
2024-04-10T10:42:15.931Z,1071.00
2024-04-10T10:43:12.585Z,1071.00
2024-04-10T10:44:12.560Z,1068.00
2024-04-10T10:45:12.085Z,1045.00
2024-04-10T10:46:13.308Z,1041.00
2024-04-10T10:47:12.815Z,1029.00
2024-04-10T10:48:12.154Z,1022.00
2024-04-10T10:49:12.537Z,1001.00
2024-04-10T10:50:12.041Z,988.00
2024-04-10T10:51:12.110Z,977.00
2024-04-10T10:52:12.456Z,979.00
2024-04-10T10:53:12.582Z,973.00
2024-04-10T10:54:12.047Z,963.00
2024-04-10T10:55:11.997Z,953.00
2024-04-10T10:56:12.010Z,954.00
2024-04-10T10:57:12.051Z,953.00
2024-04-10T10:58:12.435Z,975.00
2024-04-10T10:59:13.713Z,987.00
2024-04-10T11:00:12.041Z,976.00
2024-04-10T11:01:12.972Z,980.00
2024-04-10T11:02:12.135Z,964.00
2024-04-10T11:03:17.072Z,962.00
2024-04-10T11:04:13.740Z,951.00
2024-04-10T11:05:13.140Z,942.00
2024-04-10T11:06:12.424Z,934.00
2024-04-10T11:07:12.184Z,921.00
2024-04-10T11:08:12.582Z,923.00
2024-04-10T11:09:12.158Z,916.00
2024-04-10T11:10:12.180Z,904.00
2024-04-10T11:11:14.114Z,902.00
2024-04-10T11:12:12.552Z,889.00
2024-04-10T11:13:12.185Z,882.00
2024-04-10T11:14:12.499Z,886.00
2024-04-10T11:15:12.694Z,867.00
2024-04-10T11:16:12.323Z,868.00
2024-04-10T11:17:12.355Z,857.00
2024-04-10T11:18:12.723Z,862.00
2024-04-10T11:19:13.580Z,854.00
2024-04-10T11:20:13.780Z,843.00
2024-04-10T11:21:13.448Z,821.00
2024-04-10T11:22:13.418Z,810.00
2024-04-10T11:23:13.738Z,825.00
2024-04-10T11:24:12.578Z,842.00
2024-04-10T11:25:12.643Z,867.00
2024-04-10T11:26:12.747Z,878.00
2024-04-10T11:27:12.739Z,903.00
2024-04-10T11:28:12.620Z,921.00
2024-04-10T11:29:12.677Z,927.00
2024-04-10T11:30:12.652Z,936.00
2024-04-10T11:31:12.655Z,928.00
2024-04-10T11:32:13.074Z,946.00
2024-04-10T11:33:12.828Z,948.00
2024-04-10T11:34:12.823Z,940.00
2024-04-10T11:35:12.842Z,955.00
2024-04-10T11:36:12.854Z,964.00
2024-04-10T11:37:12.920Z,958.00
2024-04-10T11:38:13.051Z,951.00
2024-04-10T11:39:13.171Z,965.00
2024-04-10T11:40:13.166Z,943.00
2024-04-10T11:41:13.160Z,930.00
2024-04-10T11:42:13.203Z,936.00
2024-04-10T11:43:13.329Z,936.00
2024-04-10T11:44:13.321Z,936.00
2024-04-10T11:45:13.334Z,937.00
2024-04-10T11:46:13.421Z,937.00
2024-04-10T11:47:13.603Z,942.00
2024-04-10T11:48:13.666Z,942.00
2024-04-10T11:49:13.815Z,944.00
2024-04-10T11:50:13.839Z,945.00
2024-04-10T11:51:13.769Z,941.00
2024-04-10T11:52:13.864Z,931.00
2024-04-10T11:53:14.005Z,934.00
2024-04-10T11:54:14.107Z,928.00
2024-04-10T11:55:14.124Z,924.00
2024-04-10T11:56:14.269Z,933.00
2024-04-10T11:57:14.204Z,935.00
2024-04-10T11:58:14.312Z,928.00
2024-04-10T11:59:14.615Z,918.00
2024-04-10T12:00:14.376Z,932.00
2024-04-10T12:01:14.609Z,931.00
2024-04-10T12:02:14.589Z,932.00
2024-04-10T12:03:14.647Z,948.00
2024-04-10T12:04:14.836Z,949.00
2024-04-10T12:05:15.867Z,949.00
2024-04-10T12:06:15.287Z,942.00
2024-04-10T12:07:14.916Z,946.00
2024-04-10T12:08:15.070Z,959.00
2024-04-10T12:09:14.973Z,962.00
2024-04-10T12:10:15.244Z,961.00
2024-04-10T12:11:15.212Z,955.00
2024-04-10T12:12:15.350Z,978.00
2024-04-10T12:13:15.259Z,995.00
2024-04-10T12:14:15.331Z,1005.00
2024-04-10T12:15:15.488Z,992.00
2024-04-10T12:16:15.399Z,1004.00
2024-04-10T12:17:15.629Z,1000.00
2024-04-10T12:18:15.722Z,1004.00
2024-04-10T12:19:16.038Z,997.00
2024-04-10T12:20:15.675Z,989.00
2024-04-10T12:21:16.130Z,983.00
2024-04-10T12:22:16.118Z,992.00
2024-04-10T12:23:15.841Z,982.00
2024-04-10T12:24:15.884Z,973.00
2024-04-10T12:25:16.001Z,962.00
2024-04-10T12:26:16.119Z,961.00
2024-04-10T12:27:17.050Z,963.00
2024-04-10T12:28:16.226Z,957.00
2024-04-10T12:29:16.771Z,961.00